CDT,Max TemperatureF,Mean TemperatureF,Min TemperatureF,Max Dew PointF,MeanDew PointF,Min DewpointF,Max Humidity, Mean Humidity, Min Humidity, Max Sea Level PressureIn, Mean Sea Level PressureIn, Min Sea Level PressureIn, Max VisibilityMiles, Mean VisibilityMiles, Min VisibilityMiles, Max Wind SpeedMPH, Mean Wind SpeedMPH, Max Gust SpeedMPH,PrecipitationIn, CloudCover, Events, WindDirDegrees
2014-4-1,27,19,10,18,12,5,96,82,67,30.26,30.11,29.86,,,,38,18,45,0.10,,,342
2014-4-2,34,20,5,31,18,4,100,84,68,30.27,30.22,30.12,,,,13,5,16,0.23,,,82
2014-4-3,34,31,28,32,30,27,100,93,85,30.11,30.01,29.97,,,,20,8,25,0.00,,,33
2014-4-4,34,28,22,31,27,21,100,88,75,30.13,30.07,29.96,,,,26,15,31,0.00,,,343
2014-4-5,57,40,23,42,32,21,96,75,54,30.10,29.93,29.82,,,,23,11,28,0.00,,,185
2014-4-6,61,47,32,42,36,30,100,70,39,29.88,29.83,29.77,,,,18,7,24,0.00,,,328
2014-4-7,57,44,31,41,36,31,100,72,43,29.96,29.89,29.82,,,,33,12,40,0.07,,,339
2014-4-8,55,44,32,37,32,29,100,69,38,30.13,30.03,29.88,,,,23,11,28,0.00,,,332
2014-4-9,78,60,41,42,35,26,71,46,20,29.86,29.61,29.43,,,,36,22,47,0.00,,,270
2014-4-10,60,50,40,36,28,23,73,49,25,29.93,29.83,29.70,,,,30,15,37,0.00,,,326
2014-4-11,66,48,30,40,33,23,100,61,21,29.97,29.90,29.80,,,,18,7,24,T,,,280
2014-4-12,63,51,39,46,41,35,85,67,48,29.85,29.74,29.66,,,,31,11,37,0.00,,,110
2014-4-13,43,34,25,36,25,17,89,74,59,30.24,30.07,29.83,,,,37,26,44,0.00,,,12
2014-4-14,35,27,18,22,16,9,84,62,39,30.28,30.25,30.23,,,,30,13,34,0.02,,,360
2014-4-15,36,25,14,16,13,9,88,63,38,30.27,30.12,29.93,,,,23,11,30,0.00,,,140
2014-4-16,33,27,20,27,23,15,92,71,49,30.27,30.03,29.88,,,,26,17,31,0.14,,,74
2014-4-17,45,32,18,24,19,15,91,62,33,30.40,30.35,30.30,,,,15,8,17,0.00,,,311
2014-4-18,50,41,31,38,31,23,78,70,61,30.31,30.15,29.88,,,,33,21,41,0.00,,,155
2014-4-19,70,57,43,43,35,26,76,48,20,29.99,29.89,29.76,,,,29,13,38,0.00,,,266
2014-4-20,75,54,33,39,35,29,100,60,19,30.05,29.97,29.88,,,,26,9,33,0.00,,,193
2014-4-21,60,47,33,39,34,30,76,56,36,30.16,30.07,29.92,,,,30,15,36,0.00,,,341
2014-4-22,64,47,30,37,32,28,92,61,30,30.16,30.07,29.94,,,,18,8,24,0.00,,,176
2014-4-23,50,45,40,40,39,37,89,78,66,29.94,29.84,29.76,,,,35,20,43,0.37,,,153
2014-4-24,56,46,36,45,41,38,100,83,66,29.80,29.75,29.69,,,,15,5,19,0.34,,,147
2014-4-25,63,50,36,49,42,34,100,78,56,29.92,29.81,29.74,,,,20,7,22,0.00,,,29
2014-4-26,54,43,32,39,35,32,96,73,50,29.95,29.87,29.78,,,,29,16,36,0.00,,,133
2014-4-27,45,43,40,40,39,38,100,88,76,29.77,29.65,29.57,,,,32,20,40,0.82,,,132
2014-4-28,42,40,38,41,40,38,100,95,89,29.80,29.63,29.55,,,,22,15,28,0.87,,,115
2014-4-29,52,43,33,39,36,33,100,80,59,29.95,29.88,29.81,,,,35,19,39,0.07,,,30
2014-4-30,42,39,36,38,36,33,100,90,79,29.97,29.95,29.92,,,,30,21,37,0.06,,,3